sensor_id;sensor_type;location;lat;lon;timestamp;temperature;humidity
38263;DHT22;24054;50.128;19.730;2024-02-16T00:00:07;21.30;54.20
38263;DHT22;24054;50.128;19.730;2024-02-16T00:02:36;21.20;54.10
38263;DHT22;24054;50.128;19.730;2024-02-16T00:05:04;21.30;54.20
38263;DHT22;24054;50.128;19.730;2024-02-16T00:07:32;21.20;54.10
38263;DHT22;24054;50.128;19.730;2024-02-16T00:10:01;21.20;54.10
38263;DHT22;24054;50.128;19.730;2024-02-16T00:12:30;21.20;54.10
38263;DHT22;24054;50.128;19.730;2024-02-16T00:14:57;21.20;54.10
38263;DHT22;24054;50.128;19.730;2024-02-16T00:17:25;21.20;54.10
38263;DHT22;24054;50.128;19.730;2024-02-16T00:19:53;21.20;54.10
38263;DHT22;24054;50.128;19.730;2024-02-16T00:22:20;21.20;54.00
38263;DHT22;24054;50.128;19.730;2024-02-16T00:24:47;21.20;54.00
38263;DHT22;24054;50.128;19.730;2024-02-16T00:27:16;21.20;54.00
38263;DHT22;24054;50.128;19.730;2024-02-16T00:29:43;21.20;54.00
38263;DHT22;24054;50.128;19.730;2024-02-16T00:32:12;21.10;53.90
38263;DHT22;24054;50.128;19.730;2024-02-16T00:34:39;21.10;53.90
38263;DHT22;24054;50.128;19.730;2024-02-16T00:37:07;21.10;53.80
38263;DHT22;24054;50.128;19.730;2024-02-16T00:39:37;21.10;54.50
38263;DHT22;24054;50.128;19.730;2024-02-16T00:42:06;21.10;53.90
38263;DHT22;24054;50.128;19.730;2024-02-16T00:44:34;21.10;53.80
38263;DHT22;24054;50.128;19.730;2024-02-16T00:47:02;21.10;53.80
38263;DHT22;24054;50.128;19.730;2024-02-16T00:49:31;21.10;53.90
38263;DHT22;24054;50.128;19.730;2024-02-16T00:51:58;21.10;53.80
38263;DHT22;24054;50.128;19.730;2024-02-16T00:54:25;21.10;53.80
38263;DHT22;24054;50.128;19.730;2024-02-16T00:56:52;21.00;53.70
38263;DHT22;24054;50.128;19.730;2024-02-16T00:59:20;21.00;53.70
38263;DHT22;24054;50.128;19.730;2024-02-16T01:01:48;21.00;53.70
38263;DHT22;24054;50.128;19.730;2024-02-16T01:04:16;21.00;53.70
38263;DHT22;24054;50.128;19.730;2024-02-16T01:06:43;21.00;53.70
38263;DHT22;24054;50.128;19.730;2024-02-16T01:09:10;21.00;53.70
38263;DHT22;24054;50.128;19.730;2024-02-16T01:11:40;20.90;53.70
38263;DHT22;24054;50.128;19.730;2024-02-16T01:14:07;20.90;53.70
38263;DHT22;24054;50.128;19.730;2024-02-16T01:16:34;20.90;53.60
38263;DHT22;24054;50.128;19.730;2024-02-16T01:19:03;20.90;53.60
38263;DHT22;24054;50.128;19.730;2024-02-16T01:21:32;21.00;53.70
38263;DHT22;24054;50.128;19.730;2024-02-16T01:23:59;20.90;53.60
38263;DHT22;24054;50.128;19.730;2024-02-16T01:26:27;20.90;53.60
38263;DHT22;24054;50.128;19.730;2024-02-16T01:28:54;20.90;53.50
38263;DHT22;24054;50.128;19.730;2024-02-16T01:31:21;20.90;53.50
38263;DHT22;24054;50.128;19.730;2024-02-16T01:33:48;20.90;53.50
38263;DHT22;24054;50.128;19.730;2024-02-16T01:36:17;20.90;53.50
38263;DHT22;24054;50.128;19.730;2024-02-16T01:38:44;20.90;53.50
38263;DHT22;24054;50.128;19.730;2024-02-16T01:41:11;20.90;53.50
38263;DHT22;24054;50.128;19.730;2024-02-16T01:43:40;20.80;53.40
38263;DHT22;24054;50.128;19.730;2024-02-16T01:46:07;20.90;53.50
38263;DHT22;24054;50.128;19.730;2024-02-16T01:48:34;20.80;53.40
38263;DHT22;24054;50.128;19.730;2024-02-16T01:51:03;20.80;53.40
38263;DHT22;24054;50.128;19.730;2024-02-16T01:53:32;20.80;53.40
38263;DHT22;24054;50.128;19.730;2024-02-16T01:56:00;20.80;53.40
38263;DHT22;24054;50.128;19.730;2024-02-16T01:58:27;20.80;53.30
38263;DHT22;24054;50.128;19.730;2024-02-16T02:00:54;20.80;53.40
38263;DHT22;24054;50.128;19.730;2024-02-16T02:03:21;20.80;53.30
38263;DHT22;24054;50.128;19.730;2024-02-16T02:05:48;20.80;53.30
38263;DHT22;24054;50.128;19.730;2024-02-16T02:08:17;20.80;53.30
38263;DHT22;24054;50.128;19.730;2024-02-16T02:10:45;20.80;53.30
38263;DHT22;24054;50.128;19.730;2024-02-16T02:13:12;20.70;53.30
38263;DHT22;24054;50.128;19.730;2024-02-16T02:15:40;20.80;53.30
38263;DHT22;24054;50.128;19.730;2024-02-16T02:18:07;20.70;53.20
38263;DHT22;24054;50.128;19.730;2024-02-16T02:20:35;20.70;53.30
38263;DHT22;24054;50.128;19.730;2024-02-16T02:23:03;20.70;53.30
38263;DHT22;24054;50.128;19.730;2024-02-16T02:25:30;20.70;53.20
38263;DHT22;24054;50.128;19.730;2024-02-16T02:27:57;20.70;53.30
38263;DHT22;24054;50.128;19.730;2024-02-16T02:30:24;20.70;53.20
38263;DHT22;24054;50.128;19.730;2024-02-16T02:32:53;20.70;53.20
38263;DHT22;24054;50.128;19.730;2024-02-16T02:35:20;20.70;53.20
38263;DHT22;24054;50.128;19.730;2024-02-16T02:37:48;20.70;53.30
38263;DHT22;24054;50.128;19.730;2024-02-16T02:40:17;20.70;53.20
38263;DHT22;24054;50.128;19.730;2024-02-16T02:42:44;20.70;53.20
38263;DHT22;24054;50.128;19.730;2024-02-16T02:45:12;20.70;53.20
38263;DHT22;24054;50.128;19.730;2024-02-16T02:47:39;20.60;53.10
38263;DHT22;24054;50.128;19.730;2024-02-16T02:50:07;20.60;53.10
38263;DHT22;24054;50.128;19.730;2024-02-16T02:52:34;20.70;53.10
38263;DHT22;24054;50.128;19.730;2024-02-16T02:55:02;20.60;53.10
38263;DHT22;24054;50.128;19.730;2024-02-16T02:57:30;20.60;53.00
38263;DHT22;24054;50.128;19.730;2024-02-16T03:00:02;20.60;53.00
38263;DHT22;24054;50.128;19.730;2024-02-16T03:02:29;20.60;53.00
38263;DHT22;24054;50.128;19.730;2024-02-16T03:04:56;20.60;53.00
38263;DHT22;24054;50.128;19.730;2024-02-16T03:07:25;20.60;52.90
38263;DHT22;24054;50.128;19.730;2024-02-16T03:09:52;20.60;52.90
38263;DHT22;24054;50.128;19.730;2024-02-16T03:12:20;20.60;52.90
38263;DHT22;24054;50.128;19.730;2024-02-16T03:14:49;20.60;52.90
38263;DHT22;24054;50.128;19.730;2024-02-16T03:17:16;20.50;52.90
38263;DHT22;24054;50.128;19.730;2024-02-16T03:19:43;20.60;52.90
38263;DHT22;24054;50.128;19.730;2024-02-16T03:22:11;20.60;52.90
38263;DHT22;24054;50.128;19.730;2024-02-16T03:24:38;20.50;52.70
38263;DHT22;24054;50.128;19.730;2024-02-16T03:27:05;20.60;52.80
38263;DHT22;24054;50.128;19.730;2024-02-16T03:29:32;20.60;52.80
38263;DHT22;24054;50.128;19.730;2024-02-16T03:32:01;20.50;52.70
38263;DHT22;24054;50.128;19.730;2024-02-16T03:34:29;20.50;52.70
38263;DHT22;24054;50.128;19.730;2024-02-16T03:36:56;20.50;52.70
38263;DHT22;24054;50.128;19.730;2024-02-16T03:39:24;20.50;52.60
38263;DHT22;24054;50.128;19.730;2024-02-16T03:41:51;20.50;52.60
38263;DHT22;24054;50.128;19.730;2024-02-16T03:44:18;20.50;52.60
38263;DHT22;24054;50.128;19.730;2024-02-16T03:46:45;20.50;52.60
38263;DHT22;24054;50.128;19.730;2024-02-16T03:49:14;20.50;52.50
38263;DHT22;24054;50.128;19.730;2024-02-16T03:51:41;20.50;52.50
38263;DHT22;24054;50.128;19.730;2024-02-16T03:54:08;20.50;52.50
38263;DHT22;24054;50.128;19.730;2024-02-16T03:56:35;20.50;52.40
38263;DHT22;24054;50.128;19.730;2024-02-16T03:59:03;20.50;52.50
38263;DHT22;24054;50.128;19.730;2024-02-16T04:01:31;20.50;52.40
38263;DHT22;24054;50.128;19.730;2024-02-16T04:03:58;20.50;52.40
38263;DHT22;24054;50.128;19.730;2024-02-16T04:06:27;20.40;52.40
38263;DHT22;24054;50.128;19.730;2024-02-16T04:08:54;20.40;52.30
38263;DHT22;24054;50.128;19.730;2024-02-16T04:11:22;20.40;52.30
38263;DHT22;24054;50.128;19.730;2024-02-16T04:13:49;20.40;52.30
38263;DHT22;24054;50.128;19.730;2024-02-16T04:16:16;20.40;52.30
38263;DHT22;24054;50.128;19.730;2024-02-16T04:18:43;20.40;52.20
38263;DHT22;24054;50.128;19.730;2024-02-16T04:21:10;20.40;52.20
38263;DHT22;24054;50.128;19.730;2024-02-16T04:23:38;20.40;52.10
38263;DHT22;24054;50.128;19.730;2024-02-16T04:26:06;20.40;52.10
38263;DHT22;24054;50.128;19.730;2024-02-16T04:28:34;20.40;52.10
38263;DHT22;24054;50.128;19.730;2024-02-16T04:31:01;20.40;52.00
38263;DHT22;24054;50.128;19.730;2024-02-16T04:33:28;20.40;52.00
38263;DHT22;24054;50.128;19.730;2024-02-16T04:35:55;20.40;52.00
38263;DHT22;24054;50.128;19.730;2024-02-16T04:38:22;20.40;52.00
38263;DHT22;24054;50.128;19.730;2024-02-16T04:40:51;20.40;52.00
38263;DHT22;24054;50.128;19.730;2024-02-16T04:43:18;20.40;51.90
38263;DHT22;24054;50.128;19.730;2024-02-16T04:45:45;20.40;51.90
38263;DHT22;24054;50.128;19.730;2024-02-16T04:48:13;20.30;51.80
38263;DHT22;24054;50.128;19.730;2024-02-16T04:50:40;20.30;51.80
38263;DHT22;24054;50.128;19.730;2024-02-16T04:53:07;20.40;51.80
38263;DHT22;24054;50.128;19.730;2024-02-16T04:55:34;20.30;51.70
38263;DHT22;24054;50.128;19.730;2024-02-16T04:58:03;20.30;51.70
38263;DHT22;24054;50.128;19.730;2024-02-16T05:00:35;20.30;51.70
38263;DHT22;24054;50.128;19.730;2024-02-16T05:03:02;20.30;51.60
38263;DHT22;24054;50.128;19.730;2024-02-16T05:05:29;20.30;51.60
38263;DHT22;24054;50.128;19.730;2024-02-16T05:07:57;20.30;51.60
38263;DHT22;24054;50.128;19.730;2024-02-16T05:10:24;20.30;51.50
38263;DHT22;24054;50.128;19.730;2024-02-16T05:12:51;20.30;51.60
38263;DHT22;24054;50.128;19.730;2024-02-16T05:15:20;20.30;51.50
38263;DHT22;24054;50.128;19.730;2024-02-16T05:17:47;20.30;51.50
38263;DHT22;24054;50.128;19.730;2024-02-16T05:20:15;20.30;51.50
38263;DHT22;24054;50.128;19.730;2024-02-16T05:22:43;20.20;51.40
38263;DHT22;24054;50.128;19.730;2024-02-16T05:25:11;20.20;51.40
38263;DHT22;24054;50.128;19.730;2024-02-16T05:27:39;20.20;51.40
38263;DHT22;24054;50.128;19.730;2024-02-16T05:30:08;20.20;51.40
38263;DHT22;24054;50.128;19.730;2024-02-16T05:32:39;20.20;51.30
38263;DHT22;24054;50.128;19.730;2024-02-16T05:35:07;20.20;51.30
38263;DHT22;24054;50.128;19.730;2024-02-16T05:37:37;20.20;51.20
38263;DHT22;24054;50.128;19.730;2024-02-16T05:40:08;20.20;51.20
38263;DHT22;24054;50.128;19.730;2024-02-16T05:42:46;20.20;51.20
38263;DHT22;24054;50.128;19.730;2024-02-16T05:45:13;20.20;51.20
38263;DHT22;24054;50.128;19.730;2024-02-16T05:47:42;20.20;51.10
38263;DHT22;24054;50.128;19.730;2024-02-16T05:50:11;20.10;51.10
38263;DHT22;24054;50.128;19.730;2024-02-16T05:52:38;20.20;51.10
38263;DHT22;24054;50.128;19.730;2024-02-16T05:55:07;20.20;51.10
38263;DHT22;24054;50.128;19.730;2024-02-16T05:57:34;20.10;51.00
38263;DHT22;24054;50.128;19.730;2024-02-16T06:00:02;20.20;51.00
38263;DHT22;24054;50.128;19.730;2024-02-16T06:02:30;20.10;51.00
38263;DHT22;24054;50.128;19.730;2024-02-16T06:04:59;20.10;51.00
38263;DHT22;24054;50.128;19.730;2024-02-16T06:07:26;20.10;51.00
38263;DHT22;24054;50.128;19.730;2024-02-16T06:09:55;20.10;50.90
38263;DHT22;24054;50.128;19.730;2024-02-16T06:12:23;20.10;50.90
38263;DHT22;24054;50.128;19.730;2024-02-16T06:14:50;20.10;50.90
38263;DHT22;24054;50.128;19.730;2024-02-16T06:17:19;20.10;51.30
38263;DHT22;24054;50.128;19.730;2024-02-16T06:19:46;20.20;51.50
38263;DHT22;24054;50.128;19.730;2024-02-16T06:22:15;20.20;51.40
38263;DHT22;24054;50.128;19.730;2024-02-16T06:24:42;20.30;51.40
38263;DHT22;24054;50.128;19.730;2024-02-16T06:27:10;20.40;51.30
38263;DHT22;24054;50.128;19.730;2024-02-16T06:29:37;20.40;51.20
38263;DHT22;24054;50.128;19.730;2024-02-16T06:32:04;20.50;51.20
38263;DHT22;24054;50.128;19.730;2024-02-16T06:34:32;20.50;51.10
38263;DHT22;24054;50.128;19.730;2024-02-16T06:36:59;20.60;51.10
38263;DHT22;24054;50.128;19.730;2024-02-16T06:39:27;20.70;51.10
38263;DHT22;24054;50.128;19.730;2024-02-16T06:41:56;20.70;51.10
38263;DHT22;24054;50.128;19.730;2024-02-16T06:44:23;20.80;51.10
38263;DHT22;24054;50.128;19.730;2024-02-16T06:46:51;20.90;51.10
38263;DHT22;24054;50.128;19.730;2024-02-16T06:49:18;21.00;51.30
38263;DHT22;24054;50.128;19.730;2024-02-16T06:51:45;21.00;51.60
38263;DHT22;24054;50.128;19.730;2024-02-16T06:54:13;21.10;51.70
38263;DHT22;24054;50.128;19.730;2024-02-16T06:56:41;21.20;51.90
38263;DHT22;24054;50.128;19.730;2024-02-16T06:59:09;21.20;51.90
38263;DHT22;24054;50.128;19.730;2024-02-16T07:01:37;21.30;52.00
38263;DHT22;24054;50.128;19.730;2024-02-16T07:04:04;21.40;52.10
38263;DHT22;24054;50.128;19.730;2024-02-16T07:06:31;21.40;52.00
38263;DHT22;24054;50.128;19.730;2024-02-16T07:08:58;21.50;51.90
38263;DHT22;24054;50.128;19.730;2024-02-16T07:11:25;21.50;51.80
38263;DHT22;24054;50.128;19.730;2024-02-16T07:13:54;21.60;51.80
38263;DHT22;24054;50.128;19.730;2024-02-16T07:16:21;21.60;51.90
38263;DHT22;24054;50.128;19.730;2024-02-16T07:18:48;21.70;51.90
38263;DHT22;24054;50.128;19.730;2024-02-16T07:21:15;21.70;51.80
38263;DHT22;24054;50.128;19.730;2024-02-16T07:23:46;21.80;51.90
38263;DHT22;24054;50.128;19.730;2024-02-16T07:26:14;21.80;52.00
38263;DHT22;24054;50.128;19.730;2024-02-16T07:28:42;21.90;52.70
38263;DHT22;24054;50.128;19.730;2024-02-16T07:31:11;22.00;52.10
38263;DHT22;24054;50.128;19.730;2024-02-16T07:33:40;22.00;52.10
38263;DHT22;24054;50.128;19.730;2024-02-16T07:36:07;22.10;52.00
38263;DHT22;24054;50.128;19.730;2024-02-16T07:38:35;22.10;51.80
38263;DHT22;24054;50.128;19.730;2024-02-16T07:41:03;22.20;51.80
38263;DHT22;24054;50.128;19.730;2024-02-16T07:43:31;22.20;51.70
38263;DHT22;24054;50.128;19.730;2024-02-16T07:45:58;22.20;52.30
38263;DHT22;24054;50.128;19.730;2024-02-16T07:48:27;22.30;51.70
38263;DHT22;24054;50.128;19.730;2024-02-16T07:50:55;22.40;51.80
38263;DHT22;24054;50.128;19.730;2024-02-16T07:53:23;22.40;51.60
38263;DHT22;24054;50.128;19.730;2024-02-16T07:55:50;22.40;51.60
38263;DHT22;24054;50.128;19.730;2024-02-16T07:58:17;22.50;51.70
38263;DHT22;24054;50.128;19.730;2024-02-16T08:00:44;22.50;51.60
38263;DHT22;24054;50.128;19.730;2024-02-16T08:03:11;22.50;51.50
38263;DHT22;24054;50.128;19.730;2024-02-16T08:05:39;22.50;51.30
38263;DHT22;24054;50.128;19.730;2024-02-16T08:08:06;22.60;51.40
38263;DHT22;24054;50.128;19.730;2024-02-16T08:10:33;22.60;51.40
38263;DHT22;24054;50.128;19.730;2024-02-16T08:13:01;22.70;51.40
38263;DHT22;24054;50.128;19.730;2024-02-16T08:15:28;22.70;51.30
38263;DHT22;24054;50.128;19.730;2024-02-16T08:17:55;22.80;51.50
38263;DHT22;24054;50.128;19.730;2024-02-16T08:20:22;22.90;51.40
38263;DHT22;24054;50.128;19.730;2024-02-16T08:22:50;22.90;51.40
38263;DHT22;24054;50.128;19.730;2024-02-16T08:25:17;23.00;51.40
38263;DHT22;24054;50.128;19.730;2024-02-16T08:27:45;23.00;51.40
38263;DHT22;24054;50.128;19.730;2024-02-16T08:30:12;23.10;52.40
38263;DHT22;24054;50.128;19.730;2024-02-16T08:32:39;23.20;52.90
38263;DHT22;24054;50.128;19.730;2024-02-16T08:35:06;23.30;53.90
38263;DHT22;24054;50.128;19.730;2024-02-16T08:37:33;23.30;53.20
38263;DHT22;24054;50.128;19.730;2024-02-16T08:40:02;23.40;53.50
38263;DHT22;24054;50.128;19.730;2024-02-16T08:42:29;23.30;44.70
38263;DHT22;24054;50.128;19.730;2024-02-16T08:44:57;23.10;45.10
38263;DHT22;24054;50.128;19.730;2024-02-16T08:47:25;23.00;45.60
38263;DHT22;24054;50.128;19.730;2024-02-16T08:49:54;23.00;45.60
38263;DHT22;24054;50.128;19.730;2024-02-16T08:52:20;23.10;46.40
38263;DHT22;24054;50.128;19.730;2024-02-16T08:54:47;23.00;46.00
38263;DHT22;24054;50.128;19.730;2024-02-16T08:57:16;23.00;42.60
38263;DHT22;24054;50.128;19.730;2024-02-16T08:59:45;23.10;42.40
38263;DHT22;24054;50.128;19.730;2024-02-16T09:02:12;23.20;42.80
38263;DHT22;24054;50.128;19.730;2024-02-16T09:04:39;23.30;42.90
38263;DHT22;24054;50.128;19.730;2024-02-16T09:07:07;23.40;43.10
38263;DHT22;24054;50.128;19.730;2024-02-16T09:09:34;23.50;43.30
38263;DHT22;24054;50.128;19.730;2024-02-16T09:12:01;23.60;43.90
38263;DHT22;24054;50.128;19.730;2024-02-16T09:14:29;23.80;43.50
38263;DHT22;24054;50.128;19.730;2024-02-16T09:16:57;23.90;43.80
38263;DHT22;24054;50.128;19.730;2024-02-16T09:19:24;24.00;43.80
38263;DHT22;24054;50.128;19.730;2024-02-16T09:21:51;24.10;43.90
38263;DHT22;24054;50.128;19.730;2024-02-16T09:24:19;24.20;44.70
38263;DHT22;24054;50.128;19.730;2024-02-16T09:26:46;24.30;44.40
38263;DHT22;24054;50.128;19.730;2024-02-16T09:29:13;24.40;44.60
38263;DHT22;24054;50.128;19.730;2024-02-16T09:31:41;24.50;44.60
38263;DHT22;24054;50.128;19.730;2024-02-16T09:34:09;24.60;45.00
38263;DHT22;24054;50.128;19.730;2024-02-16T09:36:36;24.70;45.00
38263;DHT22;24054;50.128;19.730;2024-02-16T09:39:03;24.70;45.10
38263;DHT22;24054;50.128;19.730;2024-02-16T09:41:31;24.90;45.40
38263;DHT22;24054;50.128;19.730;2024-02-16T09:43:57;24.90;45.00
38263;DHT22;24054;50.128;19.730;2024-02-16T09:46:24;24.90;45.10
38263;DHT22;24054;50.128;19.730;2024-02-16T09:48:54;24.90;45.20
38263;DHT22;24054;50.128;19.730;2024-02-16T09:51:21;24.90;45.60
38263;DHT22;24054;50.128;19.730;2024-02-16T09:53:49;24.90;46.10
38263;DHT22;24054;50.128;19.730;2024-02-16T09:56:17;24.90;46.20
38263;DHT22;24054;50.128;19.730;2024-02-16T09:58:44;24.90;46.30
38263;DHT22;24054;50.128;19.730;2024-02-16T10:01:17;24.90;46.50
38263;DHT22;24054;50.128;19.730;2024-02-16T10:03:44;24.90;46.70
38263;DHT22;24054;50.128;19.730;2024-02-16T10:06:13;24.90;46.80
38263;DHT22;24054;50.128;19.730;2024-02-16T10:08:46;25.00;46.80
38263;DHT22;24054;50.128;19.730;2024-02-16T10:11:14;24.90;46.90
38263;DHT22;24054;50.128;19.730;2024-02-16T10:13:41;25.00;47.00
38263;DHT22;24054;50.128;19.730;2024-02-16T10:16:09;25.00;47.20
38263;DHT22;24054;50.128;19.730;2024-02-16T10:18:37;25.00;47.30
38263;DHT22;24054;50.128;19.730;2024-02-16T10:21:04;25.00;47.40
38263;DHT22;24054;50.128;19.730;2024-02-16T10:23:32;24.80;41.00
38263;DHT22;24054;50.128;19.730;2024-02-16T10:25:59;24.30;39.30
38263;DHT22;24054;50.128;19.730;2024-02-16T10:28:27;23.80;39.50
38263;DHT22;24054;50.128;19.730;2024-02-16T10:30:57;23.40;39.60
38263;DHT22;24054;50.128;19.730;2024-02-16T10:33:24;23.20;40.60
38263;DHT22;24054;50.128;19.730;2024-02-16T10:35:53;23.20;41.70
38263;DHT22;24054;50.128;19.730;2024-02-16T10:38:21;23.20;42.80
38263;DHT22;24054;50.128;19.730;2024-02-16T10:40:50;23.30;42.50
38263;DHT22;24054;50.128;19.730;2024-02-16T10:43:17;23.40;42.90
38263;DHT22;24054;50.128;19.730;2024-02-16T10:45:45;23.60;43.90
38263;DHT22;24054;50.128;19.730;2024-02-16T10:48:18;23.70;43.90
38263;DHT22;24054;50.128;19.730;2024-02-16T10:50:45;23.80;43.30
38263;DHT22;24054;50.128;19.730;2024-02-16T10:53:14;23.90;42.70
38263;DHT22;24054;50.128;19.730;2024-02-16T10:55:41;24.00;42.20
38263;DHT22;24054;50.128;19.730;2024-02-16T10:58:11;24.10;42.10
38263;DHT22;24054;50.128;19.730;2024-02-16T11:00:47;24.10;42.30
38263;DHT22;24054;50.128;19.730;2024-02-16T11:03:16;24.20;41.70
38263;DHT22;24054;50.128;19.730;2024-02-16T11:05:43;24.20;42.10
38263;DHT22;24054;50.128;19.730;2024-02-16T11:08:11;24.30;41.60
38263;DHT22;24054;50.128;19.730;2024-02-16T11:10:38;24.30;41.60
38263;DHT22;24054;50.128;19.730;2024-02-16T11:13:06;24.40;41.50
38263;DHT22;24054;50.128;19.730;2024-02-16T11:15:34;24.40;41.80
38263;DHT22;24054;50.128;19.730;2024-02-16T11:18:02;24.40;41.40
38263;DHT22;24054;50.128;19.730;2024-02-16T11:20:36;24.40;41.40
38263;DHT22;24054;50.128;19.730;2024-02-16T11:23:06;24.40;41.50
38263;DHT22;24054;50.128;19.730;2024-02-16T11:25:35;24.50;41.60
38263;DHT22;24054;50.128;19.730;2024-02-16T11:28:03;24.50;41.80
38263;DHT22;24054;50.128;19.730;2024-02-16T11:30:32;24.50;41.80
38263;DHT22;24054;50.128;19.730;2024-02-16T11:33:01;24.60;41.70
38263;DHT22;24054;50.128;19.730;2024-02-16T11:35:27;24.70;42.50
38263;DHT22;24054;50.128;19.730;2024-02-16T11:37:55;24.70;42.70
38263;DHT22;24054;50.128;19.730;2024-02-16T11:40:22;24.80;42.10
38263;DHT22;24054;50.128;19.730;2024-02-16T11:42:56;24.80;42.00
38263;DHT22;24054;50.128;19.730;2024-02-16T11:45:23;24.90;42.70
38263;DHT22;24054;50.128;19.730;2024-02-16T11:47:50;24.90;42.90
38263;DHT22;24054;50.128;19.730;2024-02-16T11:50:19;24.90;43.30
38263;DHT22;24054;50.128;19.730;2024-02-16T11:52:46;25.00;43.60
38263;DHT22;24054;50.128;19.730;2024-02-16T11:55:13;25.00;44.60
38263;DHT22;24054;50.128;19.730;2024-02-16T11:57:41;25.00;44.70
38263;DHT22;24054;50.128;19.730;2024-02-16T12:00:09;25.00;44.30
38263;DHT22;24054;50.128;19.730;2024-02-16T12:02:40;25.00;44.60
38263;DHT22;24054;50.128;19.730;2024-02-16T12:05:07;25.00;44.60
38263;DHT22;24054;50.128;19.730;2024-02-16T12:07:37;25.00;44.00
38263;DHT22;24054;50.128;19.730;2024-02-16T12:10:05;25.00;43.60
38263;DHT22;24054;50.128;19.730;2024-02-16T12:12:33;25.00;43.40
38263;DHT22;24054;50.128;19.730;2024-02-16T12:15:00;25.00;43.40
38263;DHT22;24054;50.128;19.730;2024-02-16T12:17:27;25.00;42.90
38263;DHT22;24054;50.128;19.730;2024-02-16T12:19:54;25.00;42.40
38263;DHT22;24054;50.128;19.730;2024-02-16T12:22:20;25.00;42.50
38263;DHT22;24054;50.128;19.730;2024-02-16T12:24:49;25.00;42.00
38263;DHT22;24054;50.128;19.730;2024-02-16T12:27:19;25.00;41.20
38263;DHT22;24054;50.128;19.730;2024-02-16T12:29:46;24.90;40.80
38263;DHT22;24054;50.128;19.730;2024-02-16T12:32:13;24.90;40.60
38263;DHT22;24054;50.128;19.730;2024-02-16T12:34:43;24.80;40.40
38263;DHT22;24054;50.128;19.730;2024-02-16T12:37:10;24.80;40.60
38263;DHT22;24054;50.128;19.730;2024-02-16T12:39:37;24.70;39.20
38263;DHT22;24054;50.128;19.730;2024-02-16T12:42:06;24.70;39.90
38263;DHT22;24054;50.128;19.730;2024-02-16T12:44:33;24.70;40.60
38263;DHT22;24054;50.128;19.730;2024-02-16T12:47:00;24.70;40.50
38263;DHT22;24054;50.128;19.730;2024-02-16T12:49:27;24.60;40.30
38263;DHT22;24054;50.128;19.730;2024-02-16T12:51:54;24.60;39.70
38263;DHT22;24054;50.128;19.730;2024-02-16T12:54:21;24.50;39.50
38263;DHT22;24054;50.128;19.730;2024-02-16T12:56:48;24.50;39.00
38263;DHT22;24054;50.128;19.730;2024-02-16T12:59:18;24.30;38.60
38263;DHT22;24054;50.128;19.730;2024-02-16T13:01:45;24.10;38.00
38263;DHT22;24054;50.128;19.730;2024-02-16T13:04:12;23.90;38.10
38263;DHT22;24054;50.128;19.730;2024-02-16T13:06:46;23.60;37.90
38263;DHT22;24054;50.128;19.730;2024-02-16T13:09:13;23.50;38.30
38263;DHT22;24054;50.128;19.730;2024-02-16T13:11:40;23.30;39.10
38263;DHT22;24054;50.128;19.730;2024-02-16T13:14:07;23.30;40.00
38263;DHT22;24054;50.128;19.730;2024-02-16T13:16:35;23.30;39.50
38263;DHT22;24054;50.128;19.730;2024-02-16T13:19:02;23.30;40.10
38263;DHT22;24054;50.128;19.730;2024-02-16T13:21:29;23.30;40.20
38263;DHT22;24054;50.128;19.730;2024-02-16T13:23:56;23.40;40.30
38263;DHT22;24054;50.128;19.730;2024-02-16T13:26:23;23.40;40.60
38263;DHT22;24054;50.128;19.730;2024-02-16T13:28:49;23.40;40.90
38263;DHT22;24054;50.128;19.730;2024-02-16T13:31:18;23.40;40.80
38263;DHT22;24054;50.128;19.730;2024-02-16T13:33:46;23.40;40.80
38263;DHT22;24054;50.128;19.730;2024-02-16T13:36:13;23.40;41.20
38263;DHT22;24054;50.128;19.730;2024-02-16T13:38:39;23.30;41.10
38263;DHT22;24054;50.128;19.730;2024-02-16T13:41:06;23.30;40.90
38263;DHT22;24054;50.128;19.730;2024-02-16T13:43:33;23.40;41.00
38263;DHT22;24054;50.128;19.730;2024-02-16T13:46:00;23.40;40.90
38263;DHT22;24054;50.128;19.730;2024-02-16T13:48:27;23.40;40.80
38263;DHT22;24054;50.128;19.730;2024-02-16T13:50:56;23.40;40.50
38263;DHT22;24054;50.128;19.730;2024-02-16T13:53:25;23.40;39.90
38263;DHT22;24054;50.128;19.730;2024-02-16T13:55:52;23.30;39.60
38263;DHT22;24054;50.128;19.730;2024-02-16T13:58:20;23.30;39.50
38263;DHT22;24054;50.128;19.730;2024-02-16T14:00:47;23.30;39.80
38263;DHT22;24054;50.128;19.730;2024-02-16T14:03:15;23.20;39.80
38263;DHT22;24054;50.128;19.730;2024-02-16T14:05:42;23.20;39.90
38263;DHT22;24054;50.128;19.730;2024-02-16T14:08:12;23.20;40.00
38263;DHT22;24054;50.128;19.730;2024-02-16T14:10:40;23.20;39.80
38263;DHT22;24054;50.128;19.730;2024-02-16T14:13:07;23.10;39.90
38263;DHT22;24054;50.128;19.730;2024-02-16T14:15:34;23.10;40.30
38263;DHT22;24054;50.128;19.730;2024-02-16T14:18:01;23.10;41.00
38263;DHT22;24054;50.128;19.730;2024-02-16T14:20:29;23.10;41.30
38263;DHT22;24054;50.128;19.730;2024-02-16T14:22:55;23.10;41.80
38263;DHT22;24054;50.128;19.730;2024-02-16T14:25:24;23.10;42.10
38263;DHT22;24054;50.128;19.730;2024-02-16T14:27:51;23.10;42.30
38263;DHT22;24054;50.128;19.730;2024-02-16T14:30:17;23.10;42.50
38263;DHT22;24054;50.128;19.730;2024-02-16T14:32:45;23.00;42.60
38263;DHT22;24054;50.128;19.730;2024-02-16T14:35:11;23.00;42.70
38263;DHT22;24054;50.128;19.730;2024-02-16T14:37:38;23.00;42.40
38263;DHT22;24054;50.128;19.730;2024-02-16T14:40:06;23.00;42.40
38263;DHT22;24054;50.128;19.730;2024-02-16T14:42:38;23.00;42.60
38263;DHT22;24054;50.128;19.730;2024-02-16T14:45:06;23.00;42.90
38263;DHT22;24054;50.128;19.730;2024-02-16T14:47:34;22.90;43.20
38263;DHT22;24054;50.128;19.730;2024-02-16T14:50:01;22.90;43.40
38263;DHT22;24054;50.128;19.730;2024-02-16T14:52:29;22.80;43.40
38263;DHT22;24054;50.128;19.730;2024-02-16T14:54:56;22.90;43.40
38263;DHT22;24054;50.128;19.730;2024-02-16T14:57:23;22.80;43.30
38263;DHT22;24054;50.128;19.730;2024-02-16T14:59:51;22.80;43.20
38263;DHT22;24054;50.128;19.730;2024-02-16T15:02:20;22.80;43.20
38263;DHT22;24054;50.128;19.730;2024-02-16T15:04:47;22.80;43.30
38263;DHT22;24054;50.128;19.730;2024-02-16T15:07:14;22.70;43.20
38263;DHT22;24054;50.128;19.730;2024-02-16T15:09:41;22.70;43.20
38263;DHT22;24054;50.128;19.730;2024-02-16T15:12:08;22.70;43.30
38263;DHT22;24054;50.128;19.730;2024-02-16T15:14:35;22.60;43.30
38263;DHT22;24054;50.128;19.730;2024-02-16T15:17:03;22.60;43.30